BBC Polonia — V2EZ6 — position and weather

sailwx.info

Track history (hours):
 
Tides and Currents Weather Stations Pressure Air Temp Water Temp Dewpoint Dewpoint Depression Visibility Wind Speed Wind Dir Waves Ship Positions

BBC Polonia

Last reported at 2018-Apr-15 21:31 UTC. Time now 2018-Apr-26 15:35 UTC.
Position N 53°53' W 011°28'.
Warning: this ship's position is 10 days out of date.

Length 123 m; draft 6.3 m.

Type: Cargo ship. MMSI: 305614000.

Date/timePositionNaut miles runAvg speedWind from/ knotsBaromVisibWave heightAir tempDewpointWater temp
2018-Apr-15 21:31N 53°53' W 011°28'10113.3
2018-Apr-15 13:56N 52°14' W 010°59'613.4
2018-Apr-15 13:30N 52°08' W 010°58'1213.3
2018-Apr-15 12:37N 51°57' W 010°53'213.3
2018-Apr-15 12:27N 51°55' W 010°51'2813.2
2018-Apr-15 10:19N 51°29' W 010°33'613.0
2018-Apr-15 09:53N 51°24' W 010°29'513.1
2018-Apr-15 09:29N 51°20' W 010°25'218 8.4
2018-Apr-14 07:35N 50°06' W 005°01'1 7.4
2018-Apr-14 07:30N 50°05' W 005°01'1 0.8
2018-Apr-14 06:46N 50°05' W 005°01'10 4.2
2018-Apr-14 04:26N 50°06' W 004°46'510.8
2018-Apr-14 03:58N 50°06' W 004°38'510.6
2018-Apr-14 03:30N 50°06' W 004°31'610.6
2018-Apr-14 02:55N 50°06' W 004°21'2611.7
2018-Apr-14 00:42N 50°09' W 003°41'312.8
2018-Apr-14 00:30N 50°09' W 003°37'612.5
2018-Apr-14 00:00N 50°10' W 003°27'612.2
2018-Apr-13 23:30N 50°11' W 003°18'611.9
2018-Apr-13 23:00N 50°11' W 003°09'1 2.8
2018-Apr-13 22:30N 50°12' W 003°07'510.0
2018-Apr-13 22:00N 50°11' W 003°14'510.8
2018-Apr-13 21:30N 50°12' W 003°06'510.9
2018-Apr-13 21:00N 50°12' W 002°57'510.5
2018-Apr-13 20:30N 50°13' W 002°49'6 9.9
2018-Apr-13 19:55N 50°14' W 002°40'9611.0
2018-Apr-13 11:14N 50°30' W 000°12'312.3
2018-Apr-13 11:00N 50°31' W 000°08'611.9
2018-Apr-13 10:30N 50°32' E 000°01'611.4
2018-Apr-13 10:00N 50°34' E 000°10'611.0
2018-Apr-13 09:30N 50°35' E 000°18'510.6
2018-Apr-13 09:00N 50°37' E 000°26'510.0
2018-Apr-13 08:30N 50°38' E 000°33'5 9.8
2018-Apr-13 08:00N 50°41' E 000°40'5 9.7
2018-Apr-13 07:30N 50°44' E 000°46'510.1
2018-Apr-13 07:00N 50°47' E 000°53'610.8
2018-Apr-13 06:29N 50°50' E 001°00'2112.2
2018-Apr-13 04:44N 51°03' E 001°26'312.9
2018-Apr-13 04:30N 51°05' E 001°30'612.6
2018-Apr-13 04:00N 51°09' E 001°38'612.0
2018-Apr-13 03:30N 51°13' E 001°45'611.6
2018-Apr-13 03:00N 51°18' E 001°50'611.1
2018-Apr-13 02:30N 51°22' E 001°56'5 9.4
2018-Apr-13 02:00N 51°25' E 002°02'611.0
2018-Apr-13 01:29N 51°23' E 002°10'510.9
2018-Apr-13 01:00N 51°21' E 002°18'510.2
2018-Apr-13 00:30N 51°22' E 002°26'510.1
2018-Apr-13 00:00N 51°23' E 002°34'510.5
2018-Apr-12 23:29N 51°23' E 002°42'510.0
2018-Apr-12 23:00N 51°23' E 002°50'5 9.9
2018-Apr-12 22:30N 51°24' E 002°58'5 9.7
2018-Apr-12 22:00N 51°24' E 003°06'5 9.6
2018-Apr-12 21:31N 51°25' E 003°13'5 9.4
2018-Apr-12 21:00N 51°25' E 003°21'510.0
2018-Apr-12 20:30N 51°25' E 003°29'5 9.9
2018-Apr-12 20:01N 51°26' E 003°37'4 8.5
2018-Apr-12 19:31N 51°24' E 003°43'510.6
2018-Apr-12 19:00N 51°21' E 003°49'510.9
2018-Apr-12 18:31N 51°23' E 003°57'3 6.7
2018-Apr-12 17:59N 51°24' E 004°02'510.1
2018-Apr-12 17:30N 51°23' E 004°10'5 9.7
2018-Apr-12 17:00N 51°20' E 004°16'4 9.0
2018-Apr-12 16:30N 51°17' E 004°20'0 0.0
2018-Apr-12 16:00N 51°17' E 004°20'0 0.6
2018-Apr-12 15:23N 51°16' E 004°20'2 4.4
2018-Apr-12 15:00N 51°15' E 004°22'0 0.4
2018-Apr-12 14:30N 51°15' E 004°22'0 0.0
2018-Apr-12 14:00N 51°15' E 004°22'0 0.0
2018-Apr-12 13:30N 51°15' E 004°22'0 0.0
2018-Apr-12 13:00N 51°15' E 004°22'0 0.0
2018-Apr-12 12:27N 51°15' E 004°22'0 0.0
2018-Apr-12 12:00N 51°15' E 004°22'0 0.0
2018-Apr-12 11:30N 51°15' E 004°22'0 0.0
2018-Apr-12 11:00N 51°15' E 004°22'0 0.0
2018-Apr-12 10:30N 51°15' E 004°22'0 0.0
2018-Apr-12 10:00N 51°15' E 004°22'0 0.0
2018-Apr-12 09:30N 51°15' E 004°22'0 0.0
2018-Apr-12 09:00N 51°15' E 004°22'0 0.0
2018-Apr-12 08:30N 51°15' E 004°22'0 0.0
2018-Apr-12 08:00N 51°15' E 004°22'0 0.0
2018-Apr-12 07:30N 51°15' E 004°22'0 0.0
2018-Apr-12 07:00N 51°15' E 004°22'0 0.0
2018-Apr-12 06:24N 51°15' E 004°22'0 0.0
2018-Apr-12 05:57N 51°15' E 004°22'0 0.0
2018-Apr-12 05:30N 51°15' E 004°22'0 0.0
2018-Apr-12 05:00N 51°15' E 004°22'0 0.0
2018-Apr-12 04:30N 51°15' E 004°22'0 0.0
2018-Apr-12 04:00N 51°15' E 004°22'0 0.0
2018-Apr-12 03:30N 51°15' E 004°22'0 0.0
2018-Apr-12 02:54N 51°15' E 004°22'0 0.0
2018-Apr-12 02:30N 51°15' E 004°22'0 0.0
2018-Apr-12 02:00N 51°15' E 004°22'0 0.0
2018-Apr-12 01:30N 51°15' E 004°22'0 0.0
2018-Apr-12 00:54N 51°15' E 004°22'0 0.0
2018-Apr-12 00:30N 51°15' E 004°22'0 0.0
2018-Apr-11 23:48N 51°15' E 004°22'0 0.0
2018-Apr-11 23:30N 51°15' E 004°22'0 0.0
2018-Apr-11 23:00N 51°15' E 004°22'0 0.0
2018-Apr-11 22:30N 51°15' E 004°22'0 0.0
2018-Apr-11 22:00N 51°15' E 004°22'0 0.0
2018-Apr-11 21:30N 51°15' E 004°22'0 0.0
2018-Apr-11 21:00N 51°15' E 004°22'0 0.0
2018-Apr-11 20:30N 51°15' E 004°22'0 0.0
2018-Apr-11 20:00N 51°15' E 004°22'0 0.0
2018-Apr-11 19:30N 51°15' E 004°22'0 0.0
2018-Apr-11 19:00N 51°15' E 004°22'0 0.0
2018-Apr-11 18:30N 51°15' E 004°22'0 0.0
2018-Apr-11 18:00N 51°15' E 004°22'0 0.0
2018-Apr-11 17:30N 51°15' E 004°22'0 0.0
2018-Apr-11 17:00N 51°15' E 004°22'0 0.0
2018-Apr-11 16:30N 51°15' E 004°22'0 0.0
2018-Apr-11 16:00N 51°15' E 004°22'0 0.0
2018-Apr-11 15:30N 51°15' E 004°22'0 0.0
2018-Apr-11 15:00N 51°15' E 004°22'0 0.0
2018-Apr-11 14:30N 51°15' E 004°22'0 0.0
2018-Apr-11 13:57N 51°15' E 004°22'0 0.0
2018-Apr-11 13:30N 51°15' E 004°22'0 0.0
2018-Apr-11 12:57N 51°15' E 004°22'0 0.0
2018-Apr-11 12:30N 51°15' E 004°22'0 0.0
2018-Apr-11 11:54N 51°15' E 004°22'0 0.0
2018-Apr-11 11:30N 51°15' E 004°22'0 0.0
2018-Apr-11 11:00N 51°15' E 004°22'0 0.0
2018-Apr-11 10:30N 51°15' E 004°22'0 0.0
2018-Apr-11 09:54N 51°15' E 004°22'0 0.0
2018-Apr-11 09:30N 51°15' E 004°22'0 0.0
2018-Apr-11 09:00N 51°15' E 004°22'0 0.0
2018-Apr-11 08:30N 51°15' E 004°22'0 0.0
2018-Apr-11 07:59N 51°15' E 004°22'0 0.0
2018-Apr-11 07:29N 51°15' E 004°22'0 0.0
2018-Apr-11 06:53N 51°15' E 004°22'0 0.0
2018-Apr-11 06:29N 51°15' E 004°22'0 0.0
2018-Apr-11 05:56N 51°15' E 004°22'0 0.0
2018-Apr-11 05:29N 51°15' E 004°22'0 0.0
2018-Apr-11 04:56N 51°15' E 004°22'0 0.0
2018-Apr-11 04:29N 51°15' E 004°22'0 0.0
2018-Apr-11 03:59N 51°15' E 004°22'0 0.0
2018-Apr-11 03:29N 51°15' E 004°22'0 0.0
2018-Apr-11 02:59N 51°15' E 004°22'0 0.0
2018-Apr-11 02:29N 51°15' E 004°22'0 0.0
2018-Apr-11 01:59N 51°15' E 004°22'0 0.0
2018-Apr-11 01:29N 51°15' E 004°22'0 0.0
2018-Apr-11 00:59N 51°15' E 004°22'0 0.0
2018-Apr-11 00:29N 51°15' E 004°22'0 0.0
2018-Apr-10 23:59N 51°15' E 004°22'0 0.0
2018-Apr-10 23:29N 51°15' E 004°22'0 0.0
2018-Apr-10 22:59N 51°15' E 004°22'0 0.0
2018-Apr-10 22:29N 51°15' E 004°22'0 0.0
2018-Apr-10 21:59N 51°15' E 004°22'0 0.0
2018-Apr-10 21:29N 51°15' E 004°22'0 0.0
2018-Apr-10 20:59N 51°15' E 004°22'0 0.0
2018-Apr-10 20:29N 51°15' E 004°22'0 0.0
2018-Apr-10 19:59N 51°15' E 004°22'0 0.0
2018-Apr-10 19:29N 51°15' E 004°22'0 0.0
2018-Apr-10 18:59N 51°15' E 004°22'0 0.0
2018-Apr-10 18:29N 51°15' E 004°22'0 0.0
2018-Apr-10 17:59N 51°15' E 004°22'0 0.0
2018-Apr-10 17:29N 51°15' E 004°22'0 0.0
2018-Apr-10 16:59N 51°15' E 004°22'0 0.0
2018-Apr-10 16:29N 51°15' E 004°22'0 0.0
2018-Apr-10 15:59N 51°15' E 004°22'0 0.0
2018-Apr-10 15:29N 51°15' E 004°22'0 0.0
2018-Apr-10 14:59N 51°15' E 004°22'0 0.0
2018-Apr-10 14:29N 51°15' E 004°22'0 0.0
2018-Apr-10 13:59N 51°15' E 004°22'0 0.0
2018-Apr-10 13:29N 51°15' E 004°22'0 0.0
2018-Apr-10 12:59N 51°15' E 004°22'0 0.0
2018-Apr-10 12:29N 51°15' E 004°22'0 0.0
2018-Apr-10 11:59N 51°15' E 004°22'0 0.0
2018-Apr-10 11:29N 51°15' E 004°22'0 0.0
2018-Apr-10 10:59N 51°15' E 004°22'0 0.0
2018-Apr-10 10:29N 51°15' E 004°22'0 0.0
2018-Apr-10 09:59N 51°15' E 004°22'0 0.0
2018-Apr-10 09:29N 51°15' E 004°22'0 0.0
2018-Apr-10 08:59N 51°15' E 004°22'0 0.0
2018-Apr-10 08:29N 51°15' E 004°22'0 0.0
2018-Apr-10 07:59N 51°15' E 004°22'0 0.0
2018-Apr-10 07:29N 51°15' E 004°22'0 0.0
2018-Apr-10 06:59N 51°15' E 004°22'0 0.0
2018-Apr-10 06:29N 51°15' E 004°22'0 0.0
2018-Apr-10 05:59N 51°15' E 004°22'0 0.0
2018-Apr-10 05:29N 51°15' E 004°22'0 0.0
2018-Apr-10 04:59N 51°15' E 004°22'0 0.0
2018-Apr-10 04:29N 51°15' E 004°22'0 0.0
2018-Apr-10 03:59N 51°15' E 004°22'0 0.0
2018-Apr-10 03:29N 51°15' E 004°22'0 0.0
2018-Apr-10 02:59N 51°15' E 004°22'0 0.0
2018-Apr-10 02:29N 51°15' E 004°22'0 0.0
2018-Apr-10 01:56N 51°15' E 004°22'0 0.0
2018-Apr-10 01:26N 51°15' E 004°22'0 0.0
2018-Apr-10 00:59N 51°15' E 004°22'0 0.0
2018-Apr-10 00:29N 51°15' E 004°22'0 0.0
2018-Apr-09 23:59N 51°15' E 004°22'0 0.0
2018-Apr-09 23:29N 51°15' E 004°22'0 0.0
2018-Apr-09 22:59N 51°15' E 004°22'0 0.0
2018-Apr-09 22:29N 51°15' E 004°22'0 0.0
2018-Apr-09 21:59N 51°15' E 004°22'0 0.0
2018-Apr-09 21:29N 51°15' E 004°22'0 0.0
2018-Apr-09 20:59N 51°15' E 004°22'0 0.0
2018-Apr-09 20:29N 51°15' E 004°22'0 0.0
2018-Apr-09 19:59N 51°15' E 004°22'0 0.0
2018-Apr-09 19:29N 51°15' E 004°22'0 0.0
2018-Apr-09 18:59N 51°15' E 004°22'0 0.0
2018-Apr-09 18:29N 51°15' E 004°22'0 0.0
2018-Apr-09 17:59N 51°15' E 004°22'0 0.0
2018-Apr-09 17:29N 51°15' E 004°22'0 0.0
2018-Apr-09 16:59N 51°15' E 004°22'0 0.0
2018-Apr-09 16:29N 51°15' E 004°22'0 0.0
2018-Apr-09 15:59N 51°15' E 004°22'0 0.0
2018-Apr-09 15:29N 51°15' E 004°22'0 0.0
2018-Apr-09 14:59N 51°15' E 004°22'0 0.0
2018-Apr-09 14:29N 51°15' E 004°22'0 0.0
2018-Apr-09 13:59N 51°15' E 004°22'0 0.0
2018-Apr-09 13:29N 51°15' E 004°22'0 0.0
2018-Apr-09 12:59N 51°15' E 004°22'0 0.0
2018-Apr-09 12:29N 51°15' E 004°22'0 0.0
2018-Apr-09 11:59N 51°15' E 004°22'0 0.0
2018-Apr-09 11:29N 51°15' E 004°22'0 0.0
2018-Apr-09 10:53N 51°15' E 004°22'0 0.0
2018-Apr-09 10:26N 51°15' E 004°22'0 0.0
2018-Apr-09 09:59N 51°15' E 004°22'0 0.0
2018-Apr-09 09:29N 51°15' E 004°22'0 0.0
2018-Apr-09 08:59N 51°15' E 004°22'0 0.0
2018-Apr-09 08:29N 51°15' E 004°22'0 0.0
2018-Apr-09 07:59N 51°15' E 004°22'0 0.0
2018-Apr-09 07:29N 51°15' E 004°22'0 0.0
2018-Apr-09 06:56N 51°15' E 004°22'0 0.0
2018-Apr-09 06:29N 51°15' E 004°22'0 0.0
2018-Apr-09 05:59N 51°15' E 004°22'1 1.8
2018-Apr-09 05:30N 51°15' E 004°21'1 2.8
2018-Apr-09 05:00N 51°17' E 004°20'0 0.1
2018-Apr-09 04:31N 51°17' E 004°20'2 3.5
2018-Apr-09 04:01N 51°18' E 004°18'510.2
2018-Apr-09 03:31N 51°22' E 004°13'4 8.2
2018-Apr-09 03:01N 51°22' E 004°07'611.1
2018-Apr-09 02:29N 51°26' E 003°60'611.6
2018-Apr-09 02:00N 51°22' E 003°54'611.2
2018-Apr-09 01:31N 51°22' E 003°46'611.4
2018-Apr-09 01:00N 51°25' E 003°38'5 9.1
2018-Apr-09 00:30N 51°27' E 003°32'611.8
2018-Apr-09 00:00N 51°32' E 003°25'611.6
2018-Apr-08 23:29N 51°37' E 003°21'612.3
2018-Apr-08 23:00N 51°42' E 003°16'5 9.8
2018-Apr-08 22:29N 51°47' E 003°14'2 4.6
2018-Apr-08 22:00N 51°49' E 003°13'0 0.9
2018-Apr-08 21:30N 51°49' E 003°14'1 1.4
2018-Apr-08 20:58N 51°49' E 003°14'1 2.6
2018-Apr-08 20:29N 51°48' E 003°15'1 2.8
2018-Apr-08 19:59N 51°49' E 003°17'2 4.9
2018-Apr-08 19:29N 51°51' E 003°17'4 8.8
2018-Apr-08 19:00N 51°55' E 003°18'5 9.4
2018-Apr-08 18:30N 51°60' E 003°19'811.1
2018-Apr-08 17:46N 52°08' E 003°20'712.3
2018-Apr-08 17:10N 52°15' E 003°18'312.6
2018-Apr-08 16:56N 52°18' E 003°18'612.8
2018-Apr-08 16:30N 52°24' E 003°17'712.9
2018-Apr-08 15:59N 52°31' E 003°16'613.2
2018-Apr-08 15:30N 52°37' E 003°16'713.4
2018-Apr-08 15:00N 52°44' E 003°16'35611.9
2018-Apr-07 09:09N 58°34' E 005°11'210.6
2018-Apr-07 09:00N 58°35' E 005°12'510.1
2018-Apr-07 08:30N 58°40' E 005°16'510.2
2018-Apr-07 08:00N 58°45' E 005°20'510.1
2018-Apr-07 07:30N 58°49' E 005°25'510.4
2018-Apr-07 07:00N 58°53' E 005°31'510.1
2018-Apr-07 06:30N 58°58' E 005°33'5 9.7
2018-Apr-07 06:00N 59°03' E 005°35'611.4
2018-Apr-07 05:30N 59°02' E 005°46'5 9.7
2018-Apr-07 05:00N 58°57' E 005°46'1 1.2
2018-Apr-07 04:30N 58°57' E 005°45'0 0.0
2018-Apr-07 04:00N 58°57' E 005°45'0 0.0
2018-Apr-07 03:30N 58°57' E 005°45'0 0.0
2018-Apr-07 03:00N 58°57' E 005°45'0 0.0
2018-Apr-07 02:30N 58°57' E 005°45'0 0.0
2018-Apr-07 02:00N 58°57' E 005°45'0 0.0
2018-Apr-07 01:30N 58°57' E 005°45'0 0.0
2018-Apr-07 00:57N 58°57' E 005°45'0 0.0
2018-Apr-07 00:30N 58°57' E 005°45'0 0.0
2018-Apr-07 00:00N 58°57' E 005°45'0 0.0
2018-Apr-06 23:27N 58°57' E 005°45'0 0.0
2018-Apr-06 23:00N 58°57' E 005°45'0 0.0
2018-Apr-06 22:30N 58°57' E 005°45'0 0.0
2018-Apr-06 22:00N 58°57' E 005°45'0 0.0
2018-Apr-06 21:30N 58°57' E 005°45'0 0.0
2018-Apr-06 21:00N 58°57' E 005°45'0 0.0
2018-Apr-06 20:30N 58°57' E 005°45'0 0.0
2018-Apr-06 20:00N 58°57' E 005°45'0 0.0
2018-Apr-06 19:30N 58°57' E 005°45'0 0.0
2018-Apr-06 19:00N 58°57' E 005°45'0 0.0
2018-Apr-06 18:30N 58°57' E 005°45'0 0.0
2018-Apr-06 18:00N 58°57' E 005°45'0 0.0
2018-Apr-06 17:30N 58°57' E 005°45'0 0.0
2018-Apr-06 17:00N 58°57' E 005°45'0 0.0
2018-Apr-06 16:30N 58°57' E 005°45'0 0.0
2018-Apr-06 16:00N 58°57' E 005°45'0 0.0
2018-Apr-06 15:30N 58°57' E 005°45'0 0.0
2018-Apr-06 15:00N 58°57' E 005°45'0 0.0
2018-Apr-06 14:30N 58°57' E 005°45'0 0.0
2018-Apr-06 14:00N 58°57' E 005°45'0 0.0
2018-Apr-06 13:30N 58°57' E 005°45'0 0.0
2018-Apr-06 13:00N 58°57' E 005°45'0 0.0
2018-Apr-06 12:30N 58°57' E 005°45'0 0.0
2018-Apr-06 12:00N 58°57' E 005°45'0 0.0
2018-Apr-06 11:30N 58°57' E 005°45'0 0.0
2018-Apr-06 11:00N 58°57' E 005°45'0 0.0
2018-Apr-06 10:30N 58°57' E 005°45'0 0.0
2018-Apr-06 10:00N 58°57' E 005°45'0 0.0
2018-Apr-06 09:27N 58°57' E 005°45'0 0.0
2018-Apr-06 09:00N 58°57' E 005°45'0 0.0
2018-Apr-06 08:30N 58°57' E 005°45'0 0.0
2018-Apr-06 08:00N 58°57' E 005°45'0 0.0
2018-Apr-06 07:27N 58°57' E 005°45'0 0.0
2018-Apr-06 07:00N 58°57' E 005°45'0 0.0
2018-Apr-06 06:30N 58°57' E 005°45'0 0.0
2018-Apr-06 06:00N 58°57' E 005°45'0 0.0
2018-Apr-06 05:30N 58°57' E 005°45'0 0.0
2018-Apr-06 05:00N 58°57' E 005°45'0 0.0
2018-Apr-06 04:30N 58°57' E 005°45'0 0.0
2018-Apr-06 04:00N 58°57' E 005°45'0 0.0
2018-Apr-06 03:30N 58°57' E 005°45'0 0.0
2018-Apr-06 03:00N 58°57' E 005°45'0 0.0
2018-Apr-06 02:30N 58°57' E 005°45'0 0.0
2018-Apr-06 02:00N 58°57' E 005°45'0 0.0
2018-Apr-06 01:30N 58°57' E 005°45'0 0.0
2018-Apr-06 01:00N 58°57' E 005°45'0 0.0
2018-Apr-06 00:30N 58°57' E 005°45'0 0.0
2018-Apr-06 00:00N 58°57' E 005°45'0 0.0
2018-Apr-05 23:30N 58°57' E 005°45'0 0.0
2018-Apr-05 23:00N 58°57' E 005°45'0 0.0
2018-Apr-05 22:30N 58°57' E 005°45'0 0.0
2018-Apr-05 22:00N 58°57' E 005°45'  
Track history (hours):
 
Tides and Currents Weather Stations Pressure Air Temp Water Temp Dewpoint Dewpoint Depression Visibility Wind Speed Wind Dir Waves Ship Positions

BBC Polonia

Last reported at 2018-Apr-15 21:31 UTC. Time now 2018-Apr-26 15:35 UTC.
Position N 53°53' W 011°28'.
Warning: this ship's position is 10 days out of date.

Length 123 m; draft 6.3 m.

Type: Cargo ship. MMSI: 305614000.

Date/timePositionNaut miles runAvg speedWind from/ knotsBaromVisibWave heightAir tempDewpointWater temp
2018-Apr-15 21:31N 53°53' W 011°28'10113.3
2018-Apr-15 13:56N 52°14' W 010°59'613.4
2018-Apr-15 13:30N 52°08' W 010°58'1213.3
2018-Apr-15 12:37N 51°57' W 010°53'213.3
2018-Apr-15 12:27N 51°55' W 010°51'2813.2
2018-Apr-15 10:19N 51°29' W 010°33'613.0
2018-Apr-15 09:53N 51°24' W 010°29'513.1
2018-Apr-15 09:29N 51°20' W 010°25'218 8.4
2018-Apr-14 07:35N 50°06' W 005°01'1 7.4
2018-Apr-14 07:30N 50°05' W 005°01'1 0.8
2018-Apr-14 06:46N 50°05' W 005°01'10 4.2
2018-Apr-14 04:26N 50°06' W 004°46'510.8
2018-Apr-14 03:58N 50°06' W 004°38'510.6
2018-Apr-14 03:30N 50°06' W 004°31'610.6
2018-Apr-14 02:55N 50°06' W 004°21'2611.7
2018-Apr-14 00:42N 50°09' W 003°41'312.8
2018-Apr-14 00:30N 50°09' W 003°37'612.5
2018-Apr-14 00:00N 50°10' W 003°27'612.2
2018-Apr-13 23:30N 50°11' W 003°18'611.9
2018-Apr-13 23:00N 50°11' W 003°09'1 2.8
2018-Apr-13 22:30N 50°12' W 003°07'510.0
2018-Apr-13 22:00N 50°11' W 003°14'510.8
2018-Apr-13 21:30N 50°12' W 003°06'510.9
2018-Apr-13 21:00N 50°12' W 002°57'510.5
2018-Apr-13 20:30N 50°13' W 002°49'6 9.9
2018-Apr-13 19:55N 50°14' W 002°40'9611.0
2018-Apr-13 11:14N 50°30' W 000°12'312.3
2018-Apr-13 11:00N 50°31' W 000°08'611.9
2018-Apr-13 10:30N 50°32' E 000°01'611.4
2018-Apr-13 10:00N 50°34' E 000°10'611.0
2018-Apr-13 09:30N 50°35' E 000°18'510.6
2018-Apr-13 09:00N 50°37' E 000°26'510.0
2018-Apr-13 08:30N 50°38' E 000°33'5 9.8
2018-Apr-13 08:00N 50°41' E 000°40'5 9.7
2018-Apr-13 07:30N 50°44' E 000°46'510.1
2018-Apr-13 07:00N 50°47' E 000°53'610.8
2018-Apr-13 06:29N 50°50' E 001°00'2112.2
2018-Apr-13 04:44N 51°03' E 001°26'312.9
2018-Apr-13 04:30N 51°05' E 001°30'612.6
2018-Apr-13 04:00N 51°09' E 001°38'612.0
2018-Apr-13 03:30N 51°13' E 001°45'611.6
2018-Apr-13 03:00N 51°18' E 001°50'611.1
2018-Apr-13 02:30N 51°22' E 001°56'5 9.4
2018-Apr-13 02:00N 51°25' E 002°02'611.0
2018-Apr-13 01:29N 51°23' E 002°10'510.9
2018-Apr-13 01:00N 51°21' E 002°18'510.2
2018-Apr-13 00:30N 51°22' E 002°26'510.1
2018-Apr-13 00:00N 51°23' E 002°34'510.5
2018-Apr-12 23:29N 51°23' E 002°42'510.0
2018-Apr-12 23:00N 51°23' E 002°50'5 9.9
2018-Apr-12 22:30N 51°24' E 002°58'5 9.7
2018-Apr-12 22:00N 51°24' E 003°06'5 9.6
2018-Apr-12 21:31N 51°25' E 003°13'5 9.4
2018-Apr-12 21:00N 51°25' E 003°21'510.0
2018-Apr-12 20:30N 51°25' E 003°29'5 9.9
2018-Apr-12 20:01N 51°26' E 003°37'4 8.5
2018-Apr-12 19:31N 51°24' E 003°43'510.6
2018-Apr-12 19:00N 51°21' E 003°49'510.9
2018-Apr-12 18:31N 51°23' E 003°57'3 6.7
2018-Apr-12 17:59N 51°24' E 004°02'510.1
2018-Apr-12 17:30N 51°23' E 004°10'5 9.7
2018-Apr-12 17:00N 51°20' E 004°16'4 9.0
2018-Apr-12 16:30N 51°17' E 004°20'0 0.0
2018-Apr-12 16:00N 51°17' E 004°20'0 0.6
2018-Apr-12 15:23N 51°16' E 004°20'2 4.4
2018-Apr-12 15:00N 51°15' E 004°22'0 0.4
2018-Apr-12 14:30N 51°15' E 004°22'0 0.0
2018-Apr-12 14:00N 51°15' E 004°22'0 0.0
2018-Apr-12 13:30N 51°15' E 004°22'0 0.0
2018-Apr-12 13:00N 51°15' E 004°22'0 0.0
2018-Apr-12 12:27N 51°15' E 004°22'0 0.0
2018-Apr-12 12:00N 51°15' E 004°22'0 0.0
2018-Apr-12 11:30N 51°15' E 004°22'0 0.0
2018-Apr-12 11:00N 51°15' E 004°22'0 0.0
2018-Apr-12 10:30N 51°15' E 004°22'0 0.0
2018-Apr-12 10:00N 51°15' E 004°22'0 0.0
2018-Apr-12 09:30N 51°15' E 004°22'0 0.0
2018-Apr-12 09:00N 51°15' E 004°22'0 0.0
2018-Apr-12 08:30N 51°15' E 004°22'0 0.0
2018-Apr-12 08:00N 51°15' E 004°22'0 0.0
2018-Apr-12 07:30N 51°15' E 004°22'0 0.0
2018-Apr-12 07:00N 51°15' E 004°22'0 0.0
2018-Apr-12 06:24N 51°15' E 004°22'0 0.0
2018-Apr-12 05:57N 51°15' E 004°22'0 0.0
2018-Apr-12 05:30N 51°15' E 004°22'0 0.0
2018-Apr-12 05:00N 51°15' E 004°22'0 0.0
2018-Apr-12 04:30N 51°15' E 004°22'0 0.0
2018-Apr-12 04:00N 51°15' E 004°22'0 0.0
2018-Apr-12 03:30N 51°15' E 004°22'0 0.0
2018-Apr-12 02:54N 51°15' E 004°22'0 0.0
2018-Apr-12 02:30N 51°15' E 004°22'0 0.0
2018-Apr-12 02:00N 51°15' E 004°22'0 0.0
2018-Apr-12 01:30N 51°15' E 004°22'0 0.0
2018-Apr-12 00:54N 51°15' E 004°22'0 0.0
2018-Apr-12 00:30N 51°15' E 004°22'0 0.0
2018-Apr-11 23:48N 51°15' E 004°22'0 0.0
2018-Apr-11 23:30N 51°15' E 004°22'0 0.0
2018-Apr-11 23:00N 51°15' E 004°22'0 0.0
2018-Apr-11 22:30N 51°15' E 004°22'0 0.0
2018-Apr-11 22:00N 51°15' E 004°22'0 0.0
2018-Apr-11 21:30N 51°15' E 004°22'0 0.0
2018-Apr-11 21:00N 51°15' E 004°22'0 0.0
2018-Apr-11 20:30N 51°15' E 004°22'0 0.0
2018-Apr-11 20:00N 51°15' E 004°22'0 0.0
2018-Apr-11 19:30N 51°15' E 004°22'0 0.0
2018-Apr-11 19:00N 51°15' E 004°22'0 0.0
2018-Apr-11 18:30N 51°15' E 004°22'0 0.0
2018-Apr-11 18:00N 51°15' E 004°22'0 0.0
2018-Apr-11 17:30N 51°15' E 004°22'0 0.0
2018-Apr-11 17:00N 51°15' E 004°22'0 0.0
2018-Apr-11 16:30N 51°15' E 004°22'0 0.0
2018-Apr-11 16:00N 51°15' E 004°22'0 0.0
2018-Apr-11 15:30N 51°15' E 004°22'0 0.0
2018-Apr-11 15:00N 51°15' E 004°22'0 0.0
2018-Apr-11 14:30N 51°15' E 004°22'0 0.0
2018-Apr-11 13:57N 51°15' E 004°22'0 0.0
2018-Apr-11 13:30N 51°15' E 004°22'0 0.0
2018-Apr-11 12:57N 51°15' E 004°22'0 0.0
2018-Apr-11 12:30N 51°15' E 004°22'0 0.0
2018-Apr-11 11:54N 51°15' E 004°22'0 0.0
2018-Apr-11 11:30N 51°15' E 004°22'0 0.0
2018-Apr-11 11:00N 51°15' E 004°22'0 0.0
2018-Apr-11 10:30N 51°15' E 004°22'0 0.0
2018-Apr-11 09:54N 51°15' E 004°22'0 0.0
2018-Apr-11 09:30N 51°15' E 004°22'0 0.0
2018-Apr-11 09:00N 51°15' E 004°22'0 0.0
2018-Apr-11 08:30N 51°15' E 004°22'0 0.0
2018-Apr-11 07:59N 51°15' E 004°22'0 0.0
2018-Apr-11 07:29N 51°15' E 004°22'0 0.0
2018-Apr-11 06:53N 51°15' E 004°22'0 0.0
2018-Apr-11 06:29N 51°15' E 004°22'0 0.0
2018-Apr-11 05:56N 51°15' E 004°22'0 0.0
2018-Apr-11 05:29N 51°15' E 004°22'0 0.0
2018-Apr-11 04:56N 51°15' E 004°22'0 0.0
2018-Apr-11 04:29N 51°15' E 004°22'0 0.0
2018-Apr-11 03:59N 51°15' E 004°22'0 0.0
2018-Apr-11 03:29N 51°15' E 004°22'0 0.0
2018-Apr-11 02:59N 51°15' E 004°22'0 0.0
2018-Apr-11 02:29N 51°15' E 004°22'0 0.0
2018-Apr-11 01:59N 51°15' E 004°22'0 0.0
2018-Apr-11 01:29N 51°15' E 004°22'0 0.0
2018-Apr-11 00:59N 51°15' E 004°22'0 0.0
2018-Apr-11 00:29N 51°15' E 004°22'0 0.0
2018-Apr-10 23:59N 51°15' E 004°22'0 0.0
2018-Apr-10 23:29N 51°15' E 004°22'0 0.0
2018-Apr-10 22:59N 51°15' E 004°22'0 0.0
2018-Apr-10 22:29N 51°15' E 004°22'0 0.0
2018-Apr-10 21:59N 51°15' E 004°22'0 0.0
2018-Apr-10 21:29N 51°15' E 004°22'0 0.0
2018-Apr-10 20:59N 51°15' E 004°22'0 0.0
2018-Apr-10 20:29N 51°15' E 004°22'0 0.0
2018-Apr-10 19:59N 51°15' E 004°22'0 0.0
2018-Apr-10 19:29N 51°15' E 004°22'0 0.0
2018-Apr-10 18:59N 51°15' E 004°22'0 0.0
2018-Apr-10 18:29N 51°15' E 004°22'0 0.0
2018-Apr-10 17:59N 51°15' E 004°22'0 0.0
2018-Apr-10 17:29N 51°15' E 004°22'0 0.0
2018-Apr-10 16:59N 51°15' E 004°22'0 0.0
2018-Apr-10 16:29N 51°15' E 004°22'0 0.0
2018-Apr-10 15:59N 51°15' E 004°22'0 0.0
2018-Apr-10 15:29N 51°15' E 004°22'0 0.0
2018-Apr-10 14:59N 51°15' E 004°22'0 0.0
2018-Apr-10 14:29N 51°15' E 004°22'0 0.0
2018-Apr-10 13:59N 51°15' E 004°22'0 0.0
2018-Apr-10 13:29N 51°15' E 004°22'0 0.0
2018-Apr-10 12:59N 51°15' E 004°22'0 0.0
2018-Apr-10 12:29N 51°15' E 004°22'0 0.0
2018-Apr-10 11:59N 51°15' E 004°22'0 0.0
2018-Apr-10 11:29N 51°15' E 004°22'0 0.0
2018-Apr-10 10:59N 51°15' E 004°22'0 0.0
2018-Apr-10 10:29N 51°15' E 004°22'0 0.0
2018-Apr-10 09:59N 51°15' E 004°22'0 0.0
2018-Apr-10 09:29N 51°15' E 004°22'0 0.0
2018-Apr-10 08:59N 51°15' E 004°22'0 0.0
2018-Apr-10 08:29N 51°15' E 004°22'0 0.0
2018-Apr-10 07:59N 51°15' E 004°22'0 0.0
2018-Apr-10 07:29N 51°15' E 004°22'0 0.0
2018-Apr-10 06:59N 51°15' E 004°22'0 0.0
2018-Apr-10 06:29N 51°15' E 004°22'0 0.0
2018-Apr-10 05:59N 51°15' E 004°22'0 0.0
2018-Apr-10 05:29N 51°15' E 004°22'0 0.0
2018-Apr-10 04:59N 51°15' E 004°22'0 0.0
2018-Apr-10 04:29N 51°15' E 004°22'0 0.0
2018-Apr-10 03:59N 51°15' E 004°22'0 0.0
2018-Apr-10 03:29N 51°15' E 004°22'0 0.0
2018-Apr-10 02:59N 51°15' E 004°22'0 0.0
2018-Apr-10 02:29N 51°15' E 004°22'0 0.0
2018-Apr-10 01:56N 51°15' E 004°22'0 0.0
2018-Apr-10 01:26N 51°15' E 004°22'0 0.0
2018-Apr-10 00:59N 51°15' E 004°22'0 0.0
2018-Apr-10 00:29N 51°15' E 004°22'0 0.0
2018-Apr-09 23:59N 51°15' E 004°22'0 0.0
2018-Apr-09 23:29N 51°15' E 004°22'0 0.0
2018-Apr-09 22:59N 51°15' E 004°22'0 0.0
2018-Apr-09 22:29N 51°15' E 004°22'0 0.0
2018-Apr-09 21:59N 51°15' E 004°22'0 0.0
2018-Apr-09 21:29N 51°15' E 004°22'0 0.0
2018-Apr-09 20:59N 51°15' E 004°22'0 0.0
2018-Apr-09 20:29N 51°15' E 004°22'0 0.0
2018-Apr-09 19:59N 51°15' E 004°22'0 0.0
2018-Apr-09 19:29N 51°15' E 004°22'0 0.0
2018-Apr-09 18:59N 51°15' E 004°22'0 0.0
2018-Apr-09 18:29N 51°15' E 004°22'0 0.0
2018-Apr-09 17:59N 51°15' E 004°22'0 0.0
2018-Apr-09 17:29N 51°15' E 004°22'0 0.0
2018-Apr-09 16:59N 51°15' E 004°22'0 0.0
2018-Apr-09 16:29N 51°15' E 004°22'0 0.0
2018-Apr-09 15:59N 51°15' E 004°22'0 0.0
2018-Apr-09 15:29N 51°15' E 004°22'0 0.0
2018-Apr-09 14:59N 51°15' E 004°22'0 0.0
2018-Apr-09 14:29N 51°15' E 004°22'0 0.0
2018-Apr-09 13:59N 51°15' E 004°22'0 0.0
2018-Apr-09 13:29N 51°15' E 004°22'0 0.0
2018-Apr-09 12:59N 51°15' E 004°22'0 0.0
2018-Apr-09 12:29N 51°15' E 004°22'0 0.0
2018-Apr-09 11:59N 51°15' E 004°22'0 0.0
2018-Apr-09 11:29N 51°15' E 004°22'0 0.0
2018-Apr-09 10:53N 51°15' E 004°22'0 0.0
2018-Apr-09 10:26N 51°15' E 004°22'0 0.0
2018-Apr-09 09:59N 51°15' E 004°22'0 0.0
2018-Apr-09 09:29N 51°15' E 004°22'0 0.0
2018-Apr-09 08:59N 51°15' E 004°22'0 0.0
2018-Apr-09 08:29N 51°15' E 004°22'0 0.0
2018-Apr-09 07:59N 51°15' E 004°22'0 0.0
2018-Apr-09 07:29N 51°15' E 004°22'0 0.0
2018-Apr-09 06:56N 51°15' E 004°22'0 0.0
2018-Apr-09 06:29N 51°15' E 004°22'0 0.0
2018-Apr-09 05:59N 51°15' E 004°22'1 1.8
2018-Apr-09 05:30N 51°15' E 004°21'1 2.8
2018-Apr-09 05:00N 51°17' E 004°20'0 0.1
2018-Apr-09 04:31N 51°17' E 004°20'2 3.5
2018-Apr-09 04:01N 51°18' E 004°18'510.2
2018-Apr-09 03:31N 51°22' E 004°13'4 8.2
2018-Apr-09 03:01N 51°22' E 004°07'611.1
2018-Apr-09 02:29N 51°26' E 003°60'611.6
2018-Apr-09 02:00N 51°22' E 003°54'611.2
2018-Apr-09 01:31N 51°22' E 003°46'611.4
2018-Apr-09 01:00N 51°25' E 003°38'5 9.1
2018-Apr-09 00:30N 51°27' E 003°32'611.8
2018-Apr-09 00:00N 51°32' E 003°25'611.6
2018-Apr-08 23:29N 51°37' E 003°21'612.3
2018-Apr-08 23:00N 51°42' E 003°16'5 9.8
2018-Apr-08 22:29N 51°47' E 003°14'2 4.6
2018-Apr-08 22:00N 51°49' E 003°13'0 0.9
2018-Apr-08 21:30N 51°49' E 003°14'1 1.4
2018-Apr-08 20:58N 51°49' E 003°14'1 2.6
2018-Apr-08 20:29N 51°48' E 003°15'1 2.8
2018-Apr-08 19:59N 51°49' E 003°17'2 4.9
2018-Apr-08 19:29N 51°51' E 003°17'4 8.8
2018-Apr-08 19:00N 51°55' E 003°18'5 9.4
2018-Apr-08 18:30N 51°60' E 003°19'811.1
2018-Apr-08 17:46N 52°08' E 003°20'712.3
2018-Apr-08 17:10N 52°15' E 003°18'312.6
2018-Apr-08 16:56N 52°18' E 003°18'612.8
2018-Apr-08 16:30N 52°24' E 003°17'712.9
2018-Apr-08 15:59N 52°31' E 003°16'613.2
2018-Apr-08 15:30N 52°37' E 003°16'713.4
2018-Apr-08 15:00N 52°44' E 003°16'35611.9
2018-Apr-07 09:09N 58°34' E 005°11'210.6
2018-Apr-07 09:00N 58°35' E 005°12'510.1
2018-Apr-07 08:30N 58°40' E 005°16'510.2
2018-Apr-07 08:00N 58°45' E 005°20'510.1
2018-Apr-07 07:30N 58°49' E 005°25'510.4
2018-Apr-07 07:00N 58°53' E 005°31'510.1
2018-Apr-07 06:30N 58°58' E 005°33'5 9.7
2018-Apr-07 06:00N 59°03' E 005°35'611.4
2018-Apr-07 05:30N 59°02' E 005°46'5 9.7
2018-Apr-07 05:00N 58°57' E 005°46'1 1.2
2018-Apr-07 04:30N 58°57' E 005°45'0 0.0
2018-Apr-07 04:00N 58°57' E 005°45'0 0.0
2018-Apr-07 03:30N 58°57' E 005°45'0 0.0
2018-Apr-07 03:00N 58°57' E 005°45'0 0.0
2018-Apr-07 02:30N 58°57' E 005°45'0 0.0
2018-Apr-07 02:00N 58°57' E 005°45'0 0.0
2018-Apr-07 01:30N 58°57' E 005°45'0 0.0
2018-Apr-07 00:57N 58°57' E 005°45'0 0.0
2018-Apr-07 00:30N 58°57' E 005°45'0 0.0
2018-Apr-07 00:00N 58°57' E 005°45'0 0.0
2018-Apr-06 23:27N 58°57' E 005°45'0 0.0
2018-Apr-06 23:00N 58°57' E 005°45'0 0.0
2018-Apr-06 22:30N 58°57' E 005°45'0 0.0
2018-Apr-06 22:00N 58°57' E 005°45'0 0.0
2018-Apr-06 21:30N 58°57' E 005°45'0 0.0
2018-Apr-06 21:00N 58°57' E 005°45'0 0.0
2018-Apr-06 20:30N 58°57' E 005°45'0 0.0
2018-Apr-06 20:00N 58°57' E 005°45'0 0.0
2018-Apr-06 19:30N 58°57' E 005°45'0 0.0
2018-Apr-06 19:00N 58°57' E 005°45'0 0.0
2018-Apr-06 18:30N 58°57' E 005°45'0 0.0
2018-Apr-06 18:00N 58°57' E 005°45'0 0.0
2018-Apr-06 17:30N 58°57' E 005°45'0 0.0
2018-Apr-06 17:00N 58°57' E 005°45'0 0.0
2018-Apr-06 16:30N 58°57' E 005°45'0 0.0
2018-Apr-06 16:00N 58°57' E 005°45'0 0.0
2018-Apr-06 15:30N 58°57' E 005°45'0 0.0
2018-Apr-06 15:00N 58°57' E 005°45'0 0.0
2018-Apr-06 14:30N 58°57' E 005°45'0 0.0
2018-Apr-06 14:00N 58°57' E 005°45'0 0.0
2018-Apr-06 13:30N 58°57' E 005°45'0 0.0
2018-Apr-06 13:00N 58°57' E 005°45'0 0.0
2018-Apr-06 12:30N 58°57' E 005°45'0 0.0
2018-Apr-06 12:00N 58°57' E 005°45'0 0.0
2018-Apr-06 11:30N 58°57' E 005°45'0 0.0
2018-Apr-06 11:00N 58°57' E 005°45'0 0.0
2018-Apr-06 10:30N 58°57' E 005°45'0 0.0
2018-Apr-06 10:00N 58°57' E 005°45'0 0.0
2018-Apr-06 09:27N 58°57' E 005°45'0 0.0
2018-Apr-06 09:00N 58°57' E 005°45'0 0.0
2018-Apr-06 08:30N 58°57' E 005°45'0 0.0
2018-Apr-06 08:00N 58°57' E 005°45'0 0.0
2018-Apr-06 07:27N 58°57' E 005°45'0 0.0
2018-Apr-06 07:00N 58°57' E 005°45'0 0.0
2018-Apr-06 06:30N 58°57' E 005°45'0 0.0
2018-Apr-06 06:00N 58°57' E 005°45'0 0.0
2018-Apr-06 05:30N 58°57' E 005°45'0 0.0
2018-Apr-06 05:00N 58°57' E 005°45'0 0.0
2018-Apr-06 04:30N 58°57' E 005°45'0 0.0
2018-Apr-06 04:00N 58°57' E 005°45'0 0.0
2018-Apr-06 03:30N 58°57' E 005°45'0 0.0
2018-Apr-06 03:00N 58°57' E 005°45'0 0.0
2018-Apr-06 02:30N 58°57' E 005°45'0 0.0
2018-Apr-06 02:00N 58°57' E 005°45'0 0.0
2018-Apr-06 01:30N 58°57' E 005°45'0 0.0
2018-Apr-06 01:00N 58°57' E 005°45'0 0.0
2018-Apr-06 00:30N 58°57' E 005°45'0 0.0
2018-Apr-06 00:00N 58°57' E 005°45'0 0.0
2018-Apr-05 23:30N 58°57' E 005°45'0 0.0
2018-Apr-05 23:00N 58°57' E 005°45'0 0.0
2018-Apr-05 22:30N 58°57' E 005°45'0 0.0
2018-Apr-05 22:00N 58°57' E 005°45'  

Dump ship's entire track history